Aérodrome :
LOGIN :

S'inscrire | Disclaimer

   EN    FR    IT 

 










Légende :    VFR   VFR Marginal   IFR   IFR Intensif   IFR Très Intensif
Visi : 
Plafond : 
>= 8 km
>= 3000ft
5 à 8 km
1000 à 3000 ft
1500m à 5 km
500 à 1000 ft
800 à 1500m
200 à 500 ft
< 800m
< 200 ft
Symboles :   Orages  Brouillard  Fortes neiges  Fortes précipitations  Vent > 20 kt
SIGMETs :   Divers  Orages  Givrage  Turbulence  Onde Orograph.  Cendres Volcan.







- Altitude de l'aérodrome : 257 ft
- Code IATA : MAN
- Voir les cartes d'approche


EGCC - Manchester

DERNIER METAR :
  • 220620Z AUTO 18005KT 150V270 9999 NCD 15/11 Q1007 NOSIG

METARs EXPIRÉS :
  • 220550Z AUTO 19004KT 150V220 9999 NCD 14/11 Q1007 NOSIG
  • 220520Z AUTO VRB03KT 9999 NCD 14/11 Q1007 NOSIG
  • 220450Z AUTO VRB03KT 9999 NCD 15/11 Q1007 NOSIG
  • 220420Z AUTO 16004KT 070V240 9999 NCD 15/11 Q1008 NOSIG
  • 220350Z AUTO 19005KT 150V230 9999 NCD 15/11 Q1008 NOSIG

TAF TAF EGCC
Valide du 22 à 06h jusqu'au 23 à 12h UTC


220457Z 2206/2312 17007KT 9999 SCT025
PROB30
TEMPO 2207/2210 BKN014
TEMPO 2208/2213 6000 RA
BECMG 2211/2214 24010KT
PROB30
TEMPO 2215/2224 8000 -SHRA
ATIS : +44 161 499 2324
Pas de NOTAMs connus pour ce terrain.
1 SIGMET publié pour la FIR London (EGTT) :
 
Orages noyés dans la masse avec grêle
EGTT SIGMET 01 VALID 220330/220700 EGRR
EGTT LONDON FIR EMBD TSGR FCST WI N5437 W00243 - N5340 E00142 - N5142 E00150 - N5213 W00132 - N5437 W00243 TOP FL320 MOV N 15KT NC=



MET'MAP, la Météo Aéronautique d'un coup d'oeil ! - Copyright ORBIFLY Décembre 2007 - Disclaimer

ORBIFLY MET'MAP TEAM :

Programmation & Développement : Alexandra Zaïnal
Conception & Développement : Baudouin d'Aumeries
Co-Programmation & Développement : Marc-Olivier Méhu
Soutien technique & logistique : Manuel Goepfert

Contact : metmap@orbifly.com




SOURCES & CREDITS :

   NOAA